createdAt,value
2022-10-11T00:01:03.881Z,9.93
2022-10-11T00:03:30.502Z,7.53
2022-10-11T00:05:57.321Z,8.05
2022-10-11T00:08:23.903Z,8.98
2022-10-11T00:11:04.433Z,6.93
2022-10-11T00:13:31.591Z,10.73
2022-10-11T00:16:01.208Z,7.45
2022-10-11T00:18:30.288Z,12.00
2022-10-11T00:21:06.082Z,8.45
2022-10-11T00:23:33.277Z,8.93
2022-10-11T00:26:01.946Z,9.68
2022-10-11T00:28:31.395Z,9.50
2022-10-11T00:30:58.221Z,7.85
2022-10-11T00:33:24.920Z,10.63
2022-10-11T00:35:51.583Z,8.68
2022-10-11T00:38:18.493Z,14.18
2022-10-11T00:40:45.933Z,12.88
2022-10-11T00:43:21.861Z,8.02
2022-10-11T00:45:57.730Z,9.95
2022-10-11T00:48:43.071Z,6.80
2022-10-11T00:51:22.595Z,7.80
2022-10-11T00:53:51.198Z,6.78
2022-10-11T00:56:33.706Z,7.80
2022-10-11T00:59:07.018Z,13.50
2022-10-11T01:01:34.410Z,8.35
2022-10-11T01:04:04.250Z,9.48
2022-10-11T01:06:30.766Z,12.35
2022-10-11T01:08:57.696Z,8.05
2022-10-11T01:11:27.269Z,7.32
2022-10-11T01:14:04.983Z,12.13
2022-10-11T01:16:44.831Z,9.20
2022-10-11T01:19:45.801Z,7.47
2022-10-11T01:22:27.540Z,8.77
2022-10-11T01:25:22.964Z,7.28
2022-10-11T01:28:09.776Z,13.57
2022-10-11T01:30:38.053Z,9.93
2022-10-11T01:33:16.653Z,14.40
2022-10-11T01:36:10.678Z,12.60
2022-10-11T01:38:46.854Z,8.75
2022-10-11T01:41:25.406Z,10.73
2022-10-11T01:44:02.249Z,11.60
2022-10-11T01:46:32.327Z,11.65
2022-10-11T01:49:01.733Z,8.75
2022-10-11T01:51:33.130Z,8.38
2022-10-11T01:54:07.169Z,6.88
2022-10-11T01:57:04.314Z,14.23
2022-10-11T01:59:49.421Z,10.45
2022-10-11T02:02:46.873Z,8.45
2022-10-11T02:05:51.970Z,9.70
2022-10-11T02:08:44.295Z,9.60
2022-10-11T02:11:24.354Z,13.25
2022-10-11T02:14:10.649Z,8.13
2022-10-11T02:16:43.995Z,10.63
2022-10-11T02:19:15.058Z,9.73
2022-10-11T02:21:44.776Z,8.52
2022-10-11T02:24:35.786Z,7.95
2022-10-11T02:27:08.098Z,9.52
2022-10-11T02:29:39.683Z,8.57
2022-10-11T02:32:08.507Z,9.00
2022-10-11T02:34:44.512Z,11.13
2022-10-11T02:37:31.958Z,8.93
2022-10-11T02:40:24.963Z,7.68
2022-10-11T02:43:02.099Z,8.10
2022-10-11T02:45:44.091Z,12.68
2022-10-11T02:48:12.083Z,8.32
2022-10-11T02:50:42.705Z,7.55
2022-10-11T02:53:10.079Z,9.60
2022-10-11T02:55:39.626Z,7.13
2022-10-11T02:58:06.245Z,10.82
2022-10-11T03:00:32.847Z,8.98
2022-10-11T03:02:59.412Z,7.75
2022-10-11T03:05:30.796Z,6.72
2022-10-11T03:07:58.988Z,8.73
2022-10-11T03:10:25.835Z,7.40
2022-10-11T03:12:54.622Z,7.80
2022-10-11T03:15:23.422Z,8.98
2022-10-11T03:17:49.957Z,7.97
2022-10-11T03:20:16.854Z,9.15
2022-10-11T03:22:43.563Z,8.27
2022-10-11T03:25:12.558Z,10.27
2022-10-11T03:27:39.095Z,13.75
2022-10-11T03:30:06.503Z,13.48
2022-10-11T03:32:33.056Z,6.65
2022-10-11T03:34:59.634Z,6.70
2022-10-11T03:37:26.452Z,9.02
2022-10-11T03:39:53.055Z,9.52
2022-10-11T03:42:20.140Z,9.88
2022-10-11T03:44:51.756Z,13.27
2022-10-11T03:47:18.431Z,7.35
2022-10-11T03:49:44.924Z,6.27
2022-10-11T03:52:11.681Z,11.23
2022-10-11T03:54:38.390Z,7.30
2022-10-11T03:57:05.051Z,11.25
2022-10-11T03:59:31.627Z,7.47
2022-10-11T04:02:00.313Z,8.52
2022-10-11T04:04:30.432Z,11.02
2022-10-11T04:06:57.011Z,7.53
2022-10-11T04:09:23.591Z,13.35
2022-10-11T04:11:52.479Z,7.28
2022-10-11T04:14:19.027Z,6.30
2022-10-11T04:16:48.784Z,8.32
2022-10-11T04:19:15.629Z,12.10
2022-10-11T04:21:42.175Z,11.40
2022-10-11T04:24:13.057Z,8.10
2022-10-11T04:26:39.588Z,8.30
2022-10-11T04:29:06.207Z,7.57
2022-10-11T04:31:35.263Z,8.95
2022-10-11T04:34:04.810Z,10.70
2022-10-11T04:36:33.883Z,8.60
2022-10-11T04:39:01.720Z,12.50
2022-10-11T04:41:29.502Z,10.93
2022-10-11T04:43:56.372Z,8.10
2022-10-11T04:46:23.980Z,10.70
2022-10-11T04:48:52.900Z,6.97
2022-10-11T04:51:20.408Z,6.93
2022-10-11T04:53:50.241Z,13.30
2022-10-11T04:56:18.501Z,8.17
2022-10-11T04:58:48.078Z,6.60
2022-10-11T05:01:15.214Z,8.00
2022-10-11T05:03:43.874Z,8.03
2022-10-11T05:06:10.997Z,7.53
2022-10-11T05:08:40.692Z,7.97
2022-10-11T05:11:10.913Z,6.47
2022-10-11T05:13:37.543Z,7.73
2022-10-11T05:16:09.795Z,10.67
2022-10-11T05:18:38.656Z,7.57
2022-10-11T05:21:09.969Z,7.23
2022-10-11T05:23:37.185Z,11.60
2022-10-11T05:26:04.405Z,7.88
2022-10-11T05:28:31.822Z,10.03
2022-10-11T05:30:58.530Z,10.38
2022-10-11T05:33:27.824Z,6.23
2022-10-11T05:35:54.580Z,10.67
2022-10-11T05:38:21.159Z,10.90
2022-10-11T05:40:47.749Z,7.95
2022-10-11T05:43:16.887Z,9.43
2022-10-11T05:45:44.423Z,6.47
2022-10-11T05:48:11.179Z,9.75
2022-10-11T05:50:38.641Z,7.10
2022-10-11T05:53:08.147Z,8.43
2022-10-11T05:55:39.819Z,6.13
2022-10-11T05:58:07.598Z,14.77
2022-10-11T06:00:40.521Z,10.23
2022-10-11T06:03:08.712Z,6.53
2022-10-11T06:05:37.676Z,7.83
2022-10-11T06:08:06.659Z,7.27
2022-10-11T06:10:33.705Z,9.75
2022-10-11T06:13:00.728Z,9.23
2022-10-11T06:15:27.729Z,11.15
2022-10-11T06:17:54.648Z,11.18
2022-10-11T06:20:21.309Z,11.38
2022-10-11T06:22:47.899Z,7.07
2022-10-11T06:25:14.484Z,8.70
2022-10-11T06:27:41.177Z,9.38
2022-10-11T06:30:10.658Z,8.00
2022-10-11T06:32:37.326Z,7.93
2022-10-11T06:35:05.614Z,8.80
2022-10-11T06:37:32.572Z,13.65
2022-10-11T06:39:59.263Z,9.13
2022-10-11T06:42:25.835Z,10.35
2022-10-11T06:44:54.666Z,8.18
2022-10-11T06:47:21.238Z,13.35
2022-10-11T06:49:47.893Z,9.40
2022-10-11T06:52:14.544Z,8.93
2022-10-11T06:54:45.004Z,7.93
2022-10-11T06:57:14.587Z,9.88
2022-10-11T06:59:41.157Z,6.10
2022-10-11T07:02:08.838Z,11.63
2022-10-11T07:04:35.437Z,8.48
2022-10-11T07:07:02.115Z,8.98
2022-10-11T07:09:28.903Z,9.77
2022-10-11T07:11:57.994Z,9.65
2022-10-11T07:14:29.362Z,12.38
2022-10-11T07:16:58.443Z,10.43
2022-10-11T07:19:27.280Z,8.13
2022-10-11T07:21:53.908Z,10.98
2022-10-11T07:24:20.609Z,11.65
2022-10-11T07:26:47.227Z,10.20
2022-10-11T07:29:13.893Z,12.55
2022-10-11T07:31:43.936Z,11.43
2022-10-11T07:34:10.845Z,10.80
2022-10-11T07:36:37.518Z,11.35
2022-10-11T07:39:07.085Z,12.45
2022-10-11T07:41:33.721Z,13.10
2022-10-11T07:44:01.129Z,8.65
2022-10-11T07:46:27.737Z,10.63
2022-10-11T07:48:54.786Z,13.50
2022-10-11T07:51:26.112Z,12.00
2022-10-11T07:53:55.591Z,14.95
2022-10-11T07:56:28.473Z,11.48
2022-10-11T07:58:58.815Z,9.73
2022-10-11T08:01:26.909Z,15.57
2022-10-11T08:03:54.096Z,14.48
2022-10-11T08:06:23.278Z,15.75
2022-10-11T08:08:50.310Z,12.38
2022-10-11T08:11:26.437Z,9.43
2022-10-11T08:13:53.102Z,18.00
2022-10-11T08:16:20.344Z,13.55
2022-10-11T08:18:50.345Z,11.48
2022-10-11T08:21:19.336Z,10.10
2022-10-11T08:23:49.454Z,13.10
2022-10-11T08:26:16.262Z,10.32
2022-10-11T08:28:45.372Z,9.75
2022-10-11T08:31:14.417Z,10.00
2022-10-11T08:33:44.519Z,9.57
2022-10-11T08:36:11.893Z,15.63
2022-10-11T08:38:39.426Z,11.43
2022-10-11T08:41:39.261Z,15.45
2022-10-11T08:44:08.831Z,11.77
2022-10-11T08:46:35.517Z,11.18
2022-10-11T08:49:06.772Z,10.25
2022-10-11T08:52:02.388Z,12.85
2022-10-11T08:54:49.685Z,18.00
2022-10-11T08:57:24.798Z,9.13
2022-10-11T08:59:55.974Z,11.93
2022-10-11T09:02:55.815Z,12.25
2022-10-11T09:05:24.815Z,18.80
2022-10-11T09:08:10.838Z,10.23
2022-10-11T09:10:56.444Z,12.02
2022-10-11T09:13:55.362Z,8.60
2022-10-11T09:16:42.710Z,18.67
2022-10-11T09:19:27.665Z,13.85
2022-10-11T09:22:43.282Z,9.75
2022-10-11T09:25:18.298Z,7.55
2022-10-11T09:28:02.987Z,6.35
2022-10-11T09:30:31.510Z,14.00
2022-10-11T09:33:11.842Z,8.02
2022-10-11T09:35:46.141Z,8.43
2022-10-11T09:38:21.791Z,12.02
2022-10-11T09:41:17.768Z,15.50
2022-10-11T09:43:49.601Z,12.55
2022-10-11T09:46:32.444Z,12.18
2022-10-11T09:49:02.853Z,7.88
2022-10-11T09:51:30.204Z,10.40
2022-10-11T09:54:02.866Z,9.63
2022-10-11T09:56:30.910Z,9.35
2022-10-11T09:59:27.575Z,6.40
2022-10-11T10:02:27.235Z,5.15
2022-10-11T10:04:53.776Z,10.57
2022-10-11T10:07:21.288Z,8.15
2022-10-11T10:09:51.360Z,7.18
2022-10-11T10:12:24.341Z,13.98
2022-10-11T10:15:19.570Z,6.28
2022-10-11T10:17:55.253Z,6.75
2022-10-11T10:20:30.180Z,6.57
2022-10-11T10:22:57.208Z,7.15
2022-10-11T10:25:32.899Z,4.53
2022-10-11T10:28:04.988Z,11.07
2022-10-11T10:30:35.389Z,7.13
2022-10-11T10:33:10.949Z,12.40
2022-10-11T10:35:52.855Z,7.43
2022-10-11T10:38:37.439Z,6.32
2022-10-11T10:41:14.741Z,8.48
2022-10-11T10:43:45.569Z,9.30
2022-10-11T10:46:18.067Z,9.20
2022-10-11T10:52:33.664Z,6.65
2022-10-11T10:55:20.885Z,6.03
2022-10-11T10:58:27.541Z,10.55
2022-10-11T11:00:59.770Z,9.25
2022-10-11T11:03:41.459Z,8.15
2022-10-11T11:06:14.841Z,10.07
2022-10-11T11:08:49.656Z,8.82
2022-10-11T11:11:45.411Z,9.77
2022-10-11T11:14:40.133Z,6.60
2022-10-11T11:17:28.091Z,13.07
2022-10-11T11:19:57.425Z,8.65
2022-10-11T11:22:42.202Z,9.75
2022-10-11T11:25:18.079Z,11.27
2022-10-11T11:28:18.415Z,9.50
2022-10-11T11:31:03.600Z,10.35
2022-10-11T11:33:50.315Z,8.63
2022-10-11T11:36:29.315Z,9.45
2022-10-11T11:38:59.801Z,8.27
2022-10-11T11:41:30.822Z,6.95
2022-10-11T11:44:31.426Z,8.50
2022-10-11T11:47:10.722Z,14.20
2022-10-11T11:52:30.839Z,7.18
2022-10-11T11:55:16.255Z,5.57
2022-10-11T11:57:42.841Z,10.35
2022-10-11T12:00:15.303Z,7.53
2022-10-11T12:02:47.218Z,5.40
2022-10-11T12:05:19.146Z,5.40
2022-10-11T12:07:51.793Z,8.63
2022-10-11T12:10:32.960Z,6.85
2022-10-11T12:13:32.604Z,10.15
2022-10-11T12:16:22.497Z,6.95
2022-10-11T12:19:03.629Z,7.32
2022-10-11T12:21:33.433Z,9.13
2022-10-11T12:24:21.251Z,5.22
2022-10-11T12:26:56.447Z,6.88
2022-10-11T12:29:40.705Z,6.55
2022-10-11T12:32:07.261Z,8.40
2022-10-11T12:34:36.766Z,11.10
2022-10-11T12:37:18.275Z,9.32
2022-10-11T12:39:47.529Z,8.82
2022-10-11T12:42:34.516Z,8.20
2022-10-11T12:45:13.241Z,8.38
2022-10-11T12:47:52.090Z,12.82
2022-10-11T12:50:30.191Z,7.07
2022-10-11T12:53:03.250Z,8.20
2022-10-11T12:55:50.008Z,8.52
2022-10-11T12:58:28.501Z,7.85
2022-10-11T13:00:56.161Z,11.25
2022-10-11T13:03:58.787Z,9.85
2022-10-11T13:06:33.313Z,13.05
2022-10-11T13:09:14.058Z,7.22
2022-10-11T13:11:48.428Z,9.95
2022-10-11T13:14:22.144Z,7.65
2022-10-11T13:17:11.391Z,5.65
2022-10-11T13:22:21.538Z,8.65
2022-10-11T13:24:50.771Z,8.40
2022-10-11T13:27:21.512Z,5.00
2022-10-11T13:29:50.300Z,9.10
2022-10-11T13:32:26.286Z,8.50
2022-10-11T13:37:38.668Z,9.00
2022-10-11T13:40:05.839Z,9.18
2022-10-11T13:42:34.681Z,8.23
2022-10-11T13:45:01.708Z,8.43
2022-10-11T13:47:32.592Z,8.00
2022-10-11T13:50:11.024Z,6.88
2022-10-11T13:53:08.004Z,6.13
2022-10-11T13:55:51.524Z,9.55
2022-10-11T13:58:35.540Z,10.38
2022-10-11T14:01:20.064Z,6.70
2022-10-11T14:04:15.626Z,8.73
2022-10-11T14:06:59.422Z,6.60
2022-10-11T14:09:35.394Z,6.15
2022-10-11T14:12:32.222Z,5.75
2022-10-11T14:15:00.960Z,7.10
2022-10-11T14:17:47.519Z,11.50
2022-10-11T14:20:22.311Z,13.23
2022-10-11T14:22:54.493Z,4.95
2022-10-11T14:25:21.874Z,8.98
2022-10-11T14:27:49.029Z,8.15
2022-10-11T14:30:26.407Z,7.68
2022-10-11T14:32:56.780Z,11.55
2022-10-11T14:35:25.705Z,8.48
2022-10-11T14:37:53.154Z,8.23
2022-10-11T14:40:25.608Z,8.90
2022-10-11T14:42:52.346Z,10.05
2022-10-11T14:45:21.505Z,10.15
2022-10-11T14:47:48.447Z,7.30
2022-10-11T14:50:28.987Z,6.30
2022-10-11T14:52:56.343Z,9.57
2022-10-11T14:55:24.502Z,7.70
2022-10-11T14:57:51.149Z,9.02
2022-10-11T15:00:23.722Z,8.95
2022-10-11T15:02:52.763Z,16.35
2022-10-11T15:05:20.445Z,10.25
2022-10-11T15:07:47.566Z,9.85
2022-10-11T15:10:20.229Z,12.20
2022-10-11T15:12:46.786Z,6.75
2022-10-11T15:15:19.673Z,9.30
2022-10-11T15:17:48.442Z,8.57
2022-10-11T15:20:35.635Z,8.38
2022-10-11T15:23:06.410Z,8.20
2022-10-11T15:25:35.189Z,6.32
2022-10-11T15:28:02.060Z,6.82
2022-10-11T15:30:38.498Z,9.18
2022-10-11T15:33:07.920Z,9.10
2022-10-11T15:35:34.483Z,7.82
2022-10-11T15:38:01.072Z,7.10
2022-10-11T15:40:35.788Z,5.50
2022-10-11T15:43:02.848Z,10.27
2022-10-11T15:45:30.454Z,10.45
2022-10-11T15:47:59.270Z,6.25
2022-10-11T15:50:37.525Z,11.02
2022-10-11T15:53:06.903Z,5.70
2022-10-11T15:55:38.581Z,9.23
2022-10-11T15:58:05.737Z,7.45
2022-10-11T16:00:32.319Z,8.95
2022-10-11T16:03:01.750Z,7.30
2022-10-11T16:05:30.512Z,8.90
2022-10-11T16:07:57.194Z,5.82
2022-10-11T16:10:23.805Z,7.90
2022-10-11T16:12:50.454Z,11.63
2022-10-11T16:15:17.508Z,10.35
2022-10-11T16:17:45.324Z,8.13
2022-10-11T16:20:12.936Z,8.90
2022-10-11T16:22:42.026Z,6.40
2022-10-11T16:25:10.902Z,10.70
2022-10-11T16:27:42.235Z,9.38
2022-10-11T16:30:11.852Z,8.73
2022-10-11T16:32:39.160Z,10.88
2022-10-11T16:35:07.593Z,8.02
2022-10-11T16:37:35.441Z,11.13
2022-10-11T16:40:02.070Z,15.80
2022-10-11T16:42:31.013Z,9.13
2022-10-11T16:44:57.774Z,9.98
2022-10-11T16:47:24.560Z,14.77
2022-10-11T16:49:53.476Z,13.63
2022-10-11T16:52:20.031Z,11.60
2022-10-11T16:54:48.389Z,15.95
2022-10-11T16:57:16.786Z,13.23
2022-10-11T16:59:43.762Z,15.18
2022-10-11T17:02:22.569Z,17.20
2022-10-11T17:04:54.060Z,11.55
2022-10-11T17:07:22.303Z,12.70
2022-10-11T17:09:49.530Z,13.00
2022-10-11T17:12:18.857Z,9.05
2022-10-11T17:14:45.654Z,13.73
2022-10-11T17:17:12.616Z,11.82
2022-10-11T17:19:45.030Z,7.03
2022-10-11T17:22:13.114Z,9.10
2022-10-11T17:24:39.856Z,9.05
2022-10-11T17:27:09.735Z,12.02
2022-10-11T17:29:37.056Z,22.33
2022-10-11T17:32:06.572Z,19.80
2022-10-11T17:34:35.733Z,15.48
2022-10-11T17:37:06.306Z,18.55
2022-10-11T17:39:32.973Z,17.80
2022-10-11T17:42:07.335Z,21.42
2022-10-11T17:44:35.099Z,18.95
2022-10-11T17:47:02.595Z,30.98
2022-10-11T17:49:29.192Z,31.95
2022-10-11T17:51:56.619Z,44.28
2022-10-11T17:54:23.248Z,22.58
2022-10-11T17:56:50.395Z,31.52
2022-10-11T17:59:18.905Z,31.08
2022-10-11T18:01:45.469Z,29.70
2022-10-11T18:04:16.654Z,31.00
2022-10-11T18:06:45.530Z,29.02
2022-10-11T18:09:13.751Z,30.85
2022-10-11T18:11:42.815Z,28.02
2022-10-11T18:14:11.961Z,24.90
2022-10-11T18:16:39.664Z,20.05
2022-10-11T18:19:10.361Z,26.02
2022-10-11T18:21:40.282Z,21.63
2022-10-11T18:24:15.122Z,13.82
2022-10-11T18:26:42.367Z,15.38
2022-10-11T18:29:09.356Z,15.45
2022-10-11T18:31:35.972Z,16.05
2022-10-11T18:34:04.803Z,16.90
2022-10-11T18:36:32.710Z,17.63
2022-10-11T18:39:02.121Z,17.98
2022-10-11T18:41:31.658Z,19.08
2022-10-11T18:44:01.643Z,12.48
2022-10-11T18:46:29.655Z,14.80
2022-10-11T18:48:58.343Z,13.75
2022-10-11T18:51:32.357Z,16.30
2022-10-11T18:53:59.960Z,18.13
2022-10-11T18:56:32.733Z,18.98
2022-10-11T18:58:59.365Z,16.27
2022-10-11T19:01:29.662Z,16.88
2022-10-11T19:03:58.446Z,19.27
2022-10-11T19:06:33.373Z,19.33
2022-10-11T19:09:10.948Z,14.20
2022-10-11T19:11:40.536Z,15.48
2022-10-11T19:14:11.994Z,15.68
2022-10-11T19:16:41.806Z,12.20
2022-10-11T19:19:12.749Z,14.10
2022-10-11T19:21:39.477Z,14.93
2022-10-11T19:24:09.039Z,20.10
2022-10-11T19:26:38.949Z,20.73
2022-10-11T19:29:07.106Z,16.50
2022-10-11T19:31:38.605Z,17.00
2022-10-11T19:34:05.192Z,20.77
2022-10-11T19:36:36.450Z,13.93
2022-10-11T19:39:04.502Z,16.73
2022-10-11T19:41:31.486Z,17.80
2022-10-11T19:44:00.802Z,13.85
2022-10-11T19:49:17.613Z,18.25
2022-10-11T19:51:44.668Z,21.48
2022-10-11T19:54:13.741Z,20.15
2022-10-11T19:56:43.389Z,23.23
2022-10-11T19:59:11.311Z,19.60
2022-10-11T20:01:38.011Z,16.98
2022-10-11T20:04:07.402Z,22.38
2022-10-11T20:06:40.178Z,19.75
2022-10-11T20:09:28.435Z,22.05
2022-10-11T20:11:54.612Z,21.73
2022-10-11T20:14:21.257Z,24.92
2022-10-11T20:16:50.852Z,20.15
2022-10-11T20:19:18.582Z,21.20
2022-10-11T20:21:45.468Z,22.85
2022-10-11T20:24:12.507Z,22.67
2022-10-11T20:26:41.276Z,20.33
2022-10-11T20:29:08.065Z,18.92
2022-10-11T20:31:41.772Z,16.88
2022-10-11T20:34:09.547Z,17.20
2022-10-11T20:36:36.744Z,17.40
2022-10-11T20:39:04.948Z,19.67
2022-10-11T20:41:36.893Z,21.75
2022-10-11T20:44:04.591Z,22.20
2022-10-11T20:46:34.118Z,20.48
2022-10-11T20:49:03.458Z,18.70
2022-10-11T20:51:34.642Z,19.98
2022-10-11T20:54:02.307Z,17.77
2022-10-11T20:56:29.869Z,22.40
2022-10-11T20:58:57.820Z,18.63
2022-10-11T21:01:27.242Z,15.00
2022-10-11T21:03:54.580Z,17.48
2022-10-11T21:06:21.317Z,16.20
2022-10-11T21:08:47.965Z,18.20
2022-10-11T21:11:14.525Z,14.32
2022-10-11T21:13:41.166Z,16.92
2022-10-11T21:16:12.099Z,18.65
2022-10-11T21:18:39.024Z,18.25
2022-10-11T21:21:11.555Z,15.57
2022-10-11T21:23:40.900Z,22.95
2022-10-11T21:26:12.261Z,22.40
2022-10-11T21:28:42.067Z,17.60
2022-10-11T21:31:10.285Z,18.23
2022-10-11T21:33:37.341Z,16.90
2022-10-11T21:36:05.247Z,15.30
2022-10-11T21:38:31.988Z,14.57
2022-10-11T21:41:01.833Z,15.05
2022-10-11T21:43:28.453Z,15.35
2022-10-11T21:45:55.000Z,13.02
2022-10-11T21:48:21.586Z,15.35
2022-10-11T21:50:55.038Z,13.93
2022-10-11T21:53:21.692Z,15.32
2022-10-11T21:55:48.290Z,15.38
2022-10-11T21:58:14.832Z,20.45
2022-10-11T22:00:41.463Z,20.67
2022-10-11T22:03:08.423Z,18.90
2022-10-11T22:05:34.983Z,18.08
2022-10-11T22:08:01.574Z,14.52
2022-10-11T22:10:28.181Z,14.48
2022-10-11T22:12:54.762Z,14.13
2022-10-11T22:15:23.644Z,17.50
2022-10-11T22:17:50.221Z,13.38
2022-10-11T22:20:16.884Z,15.10
2022-10-11T22:22:43.472Z,18.17
2022-10-11T22:25:10.040Z,18.05
2022-10-11T22:27:36.566Z,24.23
2022-10-11T22:30:03.537Z,26.60
2022-10-11T22:32:32.328Z,22.33
2022-10-11T22:34:58.851Z,29.33
2022-10-11T22:37:25.395Z,26.85
2022-10-11T22:39:54.546Z,26.33
2022-10-11T22:42:25.461Z,26.13
2022-10-11T22:44:56.747Z,17.55
2022-10-11T22:47:23.315Z,14.73
2022-10-11T22:49:49.863Z,17.17
2022-10-11T22:52:16.429Z,15.68
2022-10-11T22:54:42.990Z,13.93
2022-10-11T22:57:09.665Z,12.75
2022-10-11T22:59:40.777Z,11.38
2022-10-11T23:02:10.066Z,11.45
2022-10-11T23:04:36.601Z,9.63
2022-10-11T23:07:05.156Z,10.23
2022-10-11T23:09:31.972Z,10.55
2022-10-11T23:12:03.556Z,7.75
2022-10-11T23:14:30.090Z,10.10
2022-10-11T23:16:58.879Z,8.07
2022-10-11T23:19:25.575Z,10.20
2022-10-11T23:21:54.491Z,9.07
2022-10-11T23:24:21.136Z,9.40
2022-10-11T23:26:49.927Z,11.60
2022-10-11T23:29:16.738Z,11.05
2022-10-11T23:31:43.302Z,12.98
2022-10-11T23:34:11.983Z,13.75
2022-10-11T23:36:38.669Z,13.88
2022-10-11T23:39:05.461Z,12.85
2022-10-11T23:41:32.007Z,9.60
2022-10-11T23:43:58.783Z,9.98
2022-10-11T23:46:25.494Z,11.65
2022-10-11T23:48:52.056Z,8.40
2022-10-11T23:51:21.222Z,9.63
2022-10-11T23:53:47.775Z,11.82
2022-10-11T23:56:14.370Z,12.73
2022-10-11T23:58:43.132Z,9.95
